Time;durP1;ratioP1;P1;durP2;ratioP2;P2;SDS_P1;SDS_P2;PMS_P1;PMS_P2;Temp;Humidity;BMP_temperature;BMP_pressure;BME280_temperature;BME280_humidity;BME280_pressure;Samples;Min_cycle;Max_cycle;Signal;HPM_P1;HPM_P2
2022/06/14 00:01:40;;;;;;;1.55;1.55;;;20.10;85.70;;;;;;5042093;28;20183;-72
2022/06/14 00:04:06;;;;;;;1.83;1.70;;;20.10;85.90;;;;;;5043673;28;20215;-72
2022/06/14 00:06:33;;;;;;;1.95;1.95;;;20.10;85.70;;;;;;5044003;28;20252;-73
2022/06/14 00:08:59;;;;;;;1.85;1.85;;;20.10;85.80;;;;;;5042842;28;20276;-73
2022/06/14 00:11:29;;;;;;;1.95;1.90;;;20.10;85.90;;;;;;5041937;28;20294;-73
2022/06/14 00:13:56;;;;;;;1.73;1.73;;;20.00;85.80;;;;;;5042155;28;20187;-73
2022/06/14 00:16:24;;;;;;;1.60;1.60;;;20.00;85.90;;;;;;5042249;28;20256;-73
2022/06/14 00:18:50;;;;;;;1.98;1.92;;;20.00;86.10;;;;;;5044651;28;20184;-73
2022/06/14 00:21:16;;;;;;;1.98;1.88;;;20.00;86.10;;;;;;5043643;28;20192;-73
2022/06/14 00:23:42;;;;;;;2.33;2.22;;;19.90;86.00;;;;;;5043472;28;20207;-73
2022/06/14 00:26:09;;;;;;;1.75;1.75;;;19.90;86.30;;;;;;5043102;28;20258;-73
2022/06/14 00:28:35;;;;;;;1.67;1.58;;;19.90;86.00;;;;;;5042466;28;20183;-72
2022/06/14 00:31:13;;;;;;;1.73;1.73;;;19.80;86.20;;;;;;5043597;28;20187;-73
2022/06/14 00:33:39;;;;;;;3.85;1.80;;;19.80;86.20;;;;;;5044789;28;20715;-72
2022/06/14 00:36:08;;;;;;;1.90;1.77;;;19.80;86.40;;;;;;5042980;28;20218;-72
2022/06/14 00:38:35;;;;;;;1.92;1.73;;;19.80;86.10;;;;;;5039499;28;20190;-72
2022/06/14 00:41:03;;;;;;;2.05;1.88;;;19.70;85.80;;;;;;5039338;28;20194;-73
2022/06/14 00:43:30;;;;;;;1.70;1.60;;;19.70;86.00;;;;;;5041517;28;20604;-73
2022/06/14 00:46:16;;;;;;;3.72;2.17;;;19.60;86.00;;;;;;5043357;28;20191;-73
2022/06/14 00:48:45;;;;;;;1.52;1.52;;;19.60;85.70;;;;;;5040876;28;20568;-74
2022/06/14 00:51:18;;;;;;;1.35;1.35;;;19.60;86.30;;;;;;5041042;28;20217;-73
2022/06/14 00:54:11;;;;;;;1.88;1.88;;;19.60;87.10;;;;;;5044280;28;20175;-73
2022/06/14 00:56:47;;;;;;;2.55;2.00;;;19.50;86.20;;;;;;5041502;28;20606;-73
2022/06/14 00:59:48;;;;;;;1.80;1.80;;;19.50;86.30;;;;;;5040109;28;20767;-73
2022/06/14 01:02:18;;;;;;;1.77;1.77;;;19.40;86.20;;;;;;4980694;28;20205;-73
2022/06/14 01:04:46;;;;;;;2.17;2.13;;;19.40;86.50;;;;;;4983109;28;20204;-73
2022/06/14 01:07:11;;;;;;;2.00;1.95;;;19.40;86.40;;;;;;4981757;28;20190;-73
2022/06/14 01:09:53;;;;;;;5.07;2.38;;;19.40;87.20;;;;;;4979729;28;20190;-73
2022/06/14 01:12:22;;;;;;;2.28;2.17;;;19.30;86.90;;;;;;4979727;28;20212;-73
2022/06/14 01:15:05;;;;;;;2.63;2.53;;;19.30;87.30;;;;;;4981522;28;20295;-73
2022/06/14 01:17:35;;;;;;;4.35;2.80;;;19.30;87.10;;;;;;4978798;28;20213;-73
2022/06/14 01:20:01;;;;;;;2.58;2.42;;;19.20;86.80;;;;;;4980155;28;20197;-72
2022/06/14 01:22:29;;;;;;;3.10;2.35;;;19.20;88.10;;;;;;4981468;28;20200;-72
2022/06/14 01:24:55;;;;;;;2.53;2.42;;;19.20;89.00;;;;;;4981891;28;20210;-73
2022/06/14 01:27:24;;;;;;;2.97;2.78;;;19.20;89.40;;;;;;4980146;28;20190;-72
2022/06/14 01:30:00;;;;;;;2.78;2.67;;;19.20;89.80;;;;;;4981393;28;20185;-72
2022/06/14 01:32:30;;;;;;;2.97;2.78;;;19.10;89.70;;;;;;4979936;28;20292;-72
2022/06/14 01:34:59;;;;;;;9.93;2.95;;;19.00;89.90;;;;;;4981483;28;20336;-73
2022/06/14 01:37:25;;;;;;;2.55;2.10;;;19.00;89.40;;;;;;4998964;28;20243;-73
2022/06/14 01:39:51;;;;;;;2.63;2.42;;;18.90;89.40;;;;;;5037932;28;20187;-73
2022/06/14 01:42:45;;;;;;;2.55;2.45;;;18.80;89.80;;;;;;5043280;28;20195;-72
2022/06/14 01:45:39;;;;;;;2.40;2.30;;;18.80;89.30;;;;;;4979031;28;20185;-73
2022/06/14 01:48:17;;;;;;;2.03;2.03;;;18.80;91.10;;;;;;4978929;28;20259;-72
2022/06/14 01:54:21;;;;;;;2.42;2.22;;;18.70;90.30;;;;;;4981162;28;20197;-74
2022/06/14 01:56:52;;;;;;;1.92;1.92;;;18.60;89.90;;;;;;4978767;28;20221;-73
2022/06/14 01:59:50;;;;;;;1.90;1.90;;;18.60;89.80;;;;;;4976902;28;20249;-74
2022/06/14 02:02:34;;;;;;;1.92;1.88;;;18.60;89.20;;;;;;4978711;28;20201;-73
2022/06/14 02:05:19;;;;;;;2.20;2.10;;;18.50;89.10;;;;;;4980467;28;20196;-73
2022/06/14 02:08:00;;;;;;;1.85;1.85;;;18.50;89.00;;;;;;4980273;28;20247;-73
2022/06/14 02:10:37;;;;;;;2.25;2.15;;;18.50;88.70;;;;;;4980984;28;20204;-73
2022/06/14 02:13:03;;;;;;;2.47;2.38;;;18.40;88.80;;;;;;4979202;28;20227;-73
2022/06/14 02:15:57;;;;;;;3.20;2.88;;;18.40;88.10;;;;;;4980475;28;20828;-73
2022/06/14 02:18:31;;;;;;;2.88;2.55;;;18.40;89.10;;;;;;4979987;28;20201;-73
2022/06/14 02:21:05;;;;;;;2.05;2.05;;;18.40;90.10;;;;;;4980498;28;20221;-73
2022/06/14 02:23:38;;;;;;;3.10;2.58;;;18.40;90.00;;;;;;5039511;28;20207;-73
2022/06/14 02:26:29;;;;;;;2.63;2.53;;;18.30;89.70;;;;;;5043770;28;20292;-73
2022/06/14 02:29:04;;;;;;;2.70;2.60;;;18.30;89.60;;;;;;5041269;28;20940;-72
2022/06/14 02:31:56;;;;;;;3.33;2.28;;;18.20;89.40;;;;;;5042908;28;20678;-73
2022/06/14 02:34:36;;;;;;;2.72;2.67;;;18.20;90.30;;;;;;4980579;28;20197;-72
2022/06/14 02:37:09;;;;;;;2.80;2.67;;;18.20;89.60;;;;;;4975831;28;20740;-72
2022/06/14 02:39:46;;;;;;;5.55;2.85;;;18.10;89.30;;;;;;4977550;28;20197;-72
2022/06/14 02:42:36;;;;;;;2.60;2.53;;;18.10;89.30;;;;;;4979176;28;20617;-72
2022/06/14 02:45:19;;;;;;;2.88;2.78;;;18.10;90.10;;;;;;4972702;28;20204;-72
2022/06/14 02:47:49;;;;;;;3.67;3.40;;;18.10;90.10;;;;;;4978390;28;20221;-72
2022/06/14 02:50:26;;;;;;;3.42;3.13;;;18.10;89.90;;;;;;4979976;28;20240;-73
2022/06/14 02:53:04;;;;;;;2.72;2.63;;;18.00;89.60;;;;;;4980001;28;20286;-72
2022/06/14 02:55:43;;;;;;;3.05;2.70;;;18.00;89.30;;;;;;4979046;28;20198;-72
2022/06/14 02:58:13;;;;;;;2.58;2.47;;;18.00;89.90;;;;;;4978101;28;20705;-73
2022/06/14 03:00:43;;;;;;;2.75;2.65;;;18.00;90.00;;;;;;4977593;28;20197;-72
2022/06/14 03:03:14;;;;;;;3.13;2.88;;;18.00;90.40;;;;;;4979931;28;20192;-72
2022/06/14 03:05:50;;;;;;;2.95;2.85;;;18.00;90.00;;;;;;4977573;28;20205;-72
2022/06/14 03:08:35;;;;;;;3.10;3.00;;;17.90;89.90;;;;;;4981260;28;20200;-73
2022/06/14 03:11:16;;;;;;;2.88;2.78;;;17.90;89.00;;;;;;5003935;28;20200;-71
2022/06/14 03:13:53;;;;;;;39.65;35.72;;;17.90;90.00;;;;;;5046510;28;20270;-73
2022/06/14 03:16:25;;;;;;;3.65;2.90;;;17.90;90.40;;;;;;5038676;28;20238;-73
2022/06/14 03:19:06;;;;;;;2.85;2.65;;;17.90;90.00;;;;;;5041641;28;20899;-73
2022/06/14 03:21:43;;;;;;;2.80;2.72;;;17.90;90.10;;;;;;5044229;28;20204;-73
2022/06/14 03:24:29;;;;;;;3.08;2.97;;;18.00;90.90;;;;;;5044895;28;20456;-73
2022/06/14 03:27:17;;;;;;;4.47;3.08;;;18.00;90.90;;;;;;5044639;28;20186;-72
2022/06/14 03:29:42;;;;;;;4.75;4.50;;;18.00;91.50;;;;;;5042411;28;20668;-72
2022/06/14 03:32:44;;;;;;;3.65;3.35;;;18.00;91.10;;;;;;5039879;28;20245;-72
2022/06/14 03:35:22;;;;;;;3.13;2.92;;;18.00;90.80;;;;;;4998492;28;20201;-74
2022/06/14 03:37:48;;;;;;;4.13;3.45;;;18.00;90.50;;;;;;4999497;28;20212;-71
2022/06/14 03:40:18;;;;;;;3.33;3.13;;;18.00;91.10;;;;;;5004069;28;20671;-73
2022/06/14 03:42:43;;;;;;;4.40;3.97;;;18.00;92.30;;;;;;4999299;28;20204;-73
2022/06/14 03:45:12;;;;;;;3.85;3.55;;;18.10;92.70;;;;;;4998909;28;20189;-74
2022/06/14 03:47:39;;;;;;;6.05;3.35;;;18.10;93.10;;;;;;5001142;28;20275;-73
2022/06/14 03:50:57;;;;;;;4.60;3.47;;;18.10;92.30;;;;;;5003176;28;20955;-74
2022/06/14 03:53:50;;;;;;;3.70;3.50;;;18.10;92.30;;;;;;5000319;28;20213;-72
2022/06/14 03:56:43;;;;;;;3.03;2.90;;;18.00;93.30;;;;;;5002997;28;20702;-73
2022/06/14 03:59:26;;;;;;;3.13;2.92;;;18.00;92.10;;;;;;5001658;28;20197;-73
2022/06/14 04:02:22;;;;;;;3.97;3.33;;;18.00;92.40;;;;;;5001062;28;20189;-73
2022/06/14 04:05:07;;;;;;;3.30;3.10;;;18.10;93.00;;;;;;4906969;29;20671;-73
2022/06/14 04:07:35;;;;;;;3.05;2.83;;;18.10;91.90;;;;;;4906165;29;20251;-72
2022/06/14 04:10:15;;;;;;;3.10;2.80;;;18.20;92.70;;;;;;4905852;29;21209;-72
2022/06/14 04:12:48;;;;;;;3.20;3.00;;;18.20;91.40;;;;;;4936227;28;20272;-73
2022/06/14 04:15:33;;;;;;;5.40;3.40;;;18.30;90.70;;;;;;4942832;28;20195;-72
2022/06/14 04:18:36;;;;;;;2.95;2.85;;;18.40;91.20;;;;;;4941690;28;20381;-72
2022/06/14 04:21:30;;;;;;;4.28;3.72;;;18.40;90.70;;;;;;4941340;28;20258;-74
2022/06/14 04:24:19;;;;;;;3.00;2.88;;;18.50;90.50;;;;;;4901734;29;20370;-73
2022/06/14 04:27:07;;;;;;;3.20;3.08;;;18.60;90.00;;;;;;4903573;29;20208;-73
2022/06/14 04:29:48;;;;;;;4.13;3.85;;;18.70;90.30;;;;;;4906132;29;20204;-72
2022/06/14 04:32:25;;;;;;;3.08;2.88;;;18.70;90.40;;;;;;4902709;29;20194;-72
2022/06/14 04:35:31;;;;;;;3.05;2.95;;;18.80;90.20;;;;;;4901487;29;20231;-72
2022/06/14 04:38:05;;;;;;;8.35;5.25;;;18.90;90.00;;;;;;4897566;29;20237;-71
2022/06/14 04:40:53;;;;;;;7.90;5.72;;;18.90;89.40;;;;;;4913707;28;20237;-71
2022/06/14 04:43:28;;;;;;;6.70;6.10;;;19.00;89.30;;;;;;4962175;28;20751;-71
2022/06/14 04:46:06;;;;;;;9.35;6.40;;;19.10;89.60;;;;;;4961235;28;20705;-72
2022/06/14 04:48:48;;;;;;;5.50;5.00;;;19.20;89.40;;;;;;4957037;28;20205;-72
2022/06/14 04:51:31;;;;;;;6.50;5.90;;;19.30;89.90;;;;;;4961281;28;20195;-71
2022/06/14 04:54:10;;;;;;;5.88;5.32;;;19.40;89.00;;;;;;4962753;28;20202;-71
2022/06/14 04:57:02;;;;;;;9.70;4.85;;;19.50;89.50;;;;;;4959543;28;20625;-71
2022/06/14 04:59:37;;;;;;;6.55;4.10;;;19.70;90.50;;;;;;4961324;28;20413;-71
2022/06/14 05:02:31;;;;;;;4.38;3.97;;;19.90;89.90;;;;;;5036399;28;20201;-72
2022/06/14 05:05:06;;;;;;;3.63;3.40;;;20.00;89.30;;;;;;5042869;28;20202;-71
2022/06/14 05:07:40;;;;;;;3.95;3.72;;;20.10;89.50;;;;;;5038894;28;20183;-71
2022/06/14 05:10:12;;;;;;;3.08;2.88;;;20.30;90.10;;;;;;5043085;28;20324;-71
2022/06/14 05:12:47;;;;;;;3.13;3.03;;;20.40;89.90;;;;;;5044282;28;20675;-71
2022/06/14 05:15:32;;;;;;;3.28;3.08;;;20.60;89.30;;;;;;5040240;28;20190;-71
2022/06/14 05:18:03;;;;;;;2.50;2.30;;;20.70;89.10;;;;;;5042396;28;20215;-71
2022/06/14 05:20:37;;;;;;;2.90;2.80;;;20.80;89.40;;;;;;5043499;28;20214;-73
2022/06/14 05:23:10;;;;;;;3.45;3.35;;;21.00;89.30;;;;;;5041427;28;20258;-72
2022/06/14 05:25:46;;;;;;;2.70;2.60;;;21.10;89.20;;;;;;5041837;28;20195;-71
2022/06/14 05:28:15;;;;;;;3.20;2.90;;;21.20;88.70;;;;;;5036477;28;20265;-76
2022/06/14 05:30:54;;;;;;;3.22;3.08;;;21.30;88.80;;;;;;5039649;28;20190;-72
2022/06/14 05:33:27;;;;;;;3.20;2.97;;;21.40;88.50;;;;;;5040497;28;20191;-77
2022/06/14 05:36:04;;;;;;;3.28;2.38;;;21.60;87.60;;;;;;5037928;28;20191;-73
2022/06/14 05:38:49;;;;;;;2.65;2.55;;;21.60;86.80;;;;;;5041024;28;20267;-73
2022/06/14 05:41:18;;;;;;;2.78;2.67;;;21.60;86.30;;;;;;5039783;28;20218;-75
2022/06/14 05:43:51;;;;;;;2.97;2.85;;;21.50;86.20;;;;;;5035793;28;20700;-75
2022/06/14 05:46:26;;;;;;;3.08;2.97;;;21.40;86.60;;;;;;5043567;28;20190;-74
2022/06/14 05:48:56;;;;;;;3.13;2.92;;;21.20;86.90;;;;;;5043631;28;20182;-74
2022/06/14 05:51:31;;;;;;;2.40;2.30;;;21.10;87.40;;;;;;5040617;28;20275;-74
2022/06/14 05:54:09;;;;;;;3.53;3.13;;;21.10;87.30;;;;;;5039914;28;20195;-74
2022/06/14 05:57:14;;;;;;;2.65;2.58;;;21.20;87.30;;;;;;5037708;28;20298;-74
2022/06/14 05:59:48;;;;;;;3.35;3.17;;;21.30;87.60;;;;;;5043863;28;20187;-74
2022/06/14 06:02:31;;;;;;;5.65;2.92;;;21.30;87.50;;;;;;5040363;28;20684;-75
2022/06/14 06:05:06;;;;;;;2.95;2.85;;;21.30;87.40;;;;;;5040702;28;20266;-75
2022/06/14 06:07:38;;;;;;;4.72;3.08;;;21.20;87.50;;;;;;5042605;28;20627;-76
2022/06/14 06:10:08;;;;;;;3.60;2.42;;;21.20;87.10;;;;;;5044285;28;20191;-76
2022/06/14 06:12:46;;;;;;;2.88;2.78;;;21.20;87.50;;;;;;5043242;28;20481;-77
2022/06/14 06:15:12;;;;;;;2.80;2.70;;;21.20;87.50;;;;;;5041542;28;20213;-80
2022/06/14 06:17:47;;;;;;;3.00;2.90;;;21.20;87.20;;;;;;5046949;28;20647;-75
2022/06/14 06:20:31;;;;;;;2.58;2.47;;;21.30;86.90;;;;;;5042006;28;20186;-75
2022/06/14 06:23:28;;;;;;;2.97;2.78;;;21.30;87.30;;;;;;5043364;28;20190;-75
2022/06/14 06:25:55;;;;;;;2.65;2.45;;;21.30;87.40;;;;;;5042670;28;20196;-79
2022/06/14 06:28:25;;;;;;;2.95;2.75;;;21.20;87.30;;;;;;5043015;28;20253;-76
2022/06/14 06:30:58;;;;;;;2.80;2.70;;;21.20;87.40;;;;;;5041401;28;20185;-75
2022/06/14 06:33:27;;;;;;;3.63;3.10;;;21.20;87.30;;;;;;5041678;28;20582;-76
2022/06/14 06:36:13;;;;;;;2.70;2.60;;;21.30;87.20;;;;;;5038694;28;20179;-76
2022/06/14 06:38:49;;;;;;;4.95;2.45;;;21.30;87.10;;;;;;5041834;28;20699;-76
2022/06/14 06:44:11;;;;;;;4.78;2.63;;;21.40;86.50;;;;;;5045985;28;20206;-80
2022/06/14 06:46:49;;;;;;;2.65;2.55;;;21.40;86.70;;;;;;5044381;28;20210;-75
2022/06/14 06:49:19;;;;;;;2.83;2.60;;;21.50;86.40;;;;;;5042214;28;20198;-75
2022/06/14 06:51:50;;;;;;;2.97;2.88;;;21.50;86.00;;;;;;5046512;28;20331;-78
2022/06/14 06:54:23;;;;;;;2.97;2.75;;;21.60;86.10;;;;;;5064711;28;20633;-76
2022/06/14 06:56:55;;;;;;;2.90;2.80;;;21.80;86.00;;;;;;5043324;28;20239;-77
2022/06/14 06:59:43;;;;;;;3.10;3.00;;;21.80;86.00;;;;;;5040775;28;20202;-80
2022/06/14 07:02:25;;;;;;;2.80;2.65;;;21.80;85.50;;;;;;5036558;28;20204;-80
2022/06/14 07:05:03;;;;;;;2.90;2.70;;;21.80;85.10;;;;;;5045512;28;20180;-79
2022/06/14 07:07:38;;;;;;;5.57;2.70;;;21.90;85.40;;;;;;5047573;28;20184;-79
2022/06/14 07:10:18;;;;;;;3.15;3.05;;;22.00;85.10;;;;;;5049487;28;20423;-80
2022/06/14 07:13:15;;;;;;;3.30;2.90;;;22.10;84.80;;;;;;5043497;28;20186;-79
2022/06/14 07:15:47;;;;;;;2.97;2.75;;;22.20;84.70;;;;;;5045418;28;20311;-79
2022/06/14 07:18:42;;;;;;;2.92;2.83;;;22.20;84.50;;;;;;5046201;28;20200;-79
2022/06/14 07:21:23;;;;;;;3.42;3.25;;;22.30;84.40;;;;;;5046524;28;20661;-79
2022/06/14 07:24:18;;;;;;;2.65;2.63;;;22.20;84.10;;;;;;5045504;28;20699;-79
2022/06/14 07:26:48;;;;;;;2.42;2.35;;;22.20;84.30;;;;;;5048633;28;20278;-81
2022/06/14 07:29:34;;;;;;;3.95;3.30;;;22.20;84.20;;;;;;5044346;28;20183;-80
2022/06/14 07:32:17;;;;;;;3.10;3.00;;;22.30;84.20;;;;;;5043124;28;20909;-79
2022/06/14 07:34:45;;;;;;;2.42;2.42;;;22.40;84.40;;;;;;5047483;28;20194;-79
2022/06/14 07:37:42;;;;;;;4.50;2.95;;;22.50;84.20;;;;;;5052551;28;20508;-80
2022/06/14 07:40:17;;;;;;;2.90;2.80;;;22.60;84.10;;;;;;5059808;28;20915;-78
2022/06/14 07:42:54;;;;;;;2.88;2.67;;;22.60;83.50;;;;;;5058847;28;20252;-80
2022/06/14 07:45:28;;;;;;;3.08;2.97;;;22.70;83.20;;;;;;5059059;28;20194;-80
2022/06/14 07:47:56;;;;;;;3.60;3.30;;;22.70;83.10;;;;;;5058711;28;20172;-79
2022/06/14 07:50:50;;;;;;;3.40;3.30;;;22.80;83.10;;;;;;5059987;28;20649;-80
2022/06/14 07:53:26;;;;;;;3.08;2.92;;;22.90;82.90;;;;;;5052559;28;20207;-80
2022/06/14 07:56:09;;;;;;;3.58;3.38;;;23.00;83.30;;;;;;5073231;28;20201;-79
2022/06/14 07:58:54;;;;;;;2.85;2.72;;;23.10;82.60;;;;;;5070027;28;20568;-79
2022/06/14 08:01:30;;;;;;;3.17;2.97;;;23.20;82.80;;;;;;5065134;28;20180;-81
2022/06/14 08:04:20;;;;;;;3.03;2.83;;;23.40;82.40;;;;;;5055904;28;20179;-80
2022/06/14 08:06:53;;;;;;;3.45;3.35;;;23.50;82.10;;;;;;5062409;28;20275;-81
2022/06/14 08:09:21;;;;;;;2.85;2.65;;;23.60;82.00;;;;;;5061596;28;20190;-80
2022/06/14 08:11:50;;;;;;;2.95;2.85;;;23.80;82.10;;;;;;5055673;28;20245;-81
2022/06/14 08:14:29;;;;;;;3.38;3.28;;;23.80;82.40;;;;;;5056579;28;20196;-80
2022/06/14 08:16:57;;;;;;;3.00;2.80;;;24.00;82.40;;;;;;5053500;28;20204;-80
2022/06/14 08:19:36;;;;;;;4.10;3.25;;;24.20;82.00;;;;;;5059909;28;20180;-80
2022/06/14 08:22:12;;;;;;;3.20;3.10;;;24.30;81.20;;;;;;5062379;28;20558;-80
2022/06/14 08:24:45;;;;;;;3.05;2.95;;;24.50;78.30;;;;;;5049509;28;20206;-78
2022/06/14 08:27:31;;;;;;;2.60;2.40;;;24.60;78.40;;;;;;5047078;28;20194;-79
2022/06/14 08:30:10;;;;;;;3.13;3.03;;;24.70;78.90;;;;;;5046908;28;20191;-79
2022/06/14 08:33:02;;;;;;;3.15;2.92;;;24.70;79.00;;;;;;5050195;28;20279;-79
2022/06/14 08:35:52;;;;;;;3.05;2.63;;;24.90;79.60;;;;;;5049582;28;21357;-79
2022/06/14 08:38:29;;;;;;;2.38;2.38;;;25.00;79.50;;;;;;5042857;28;20199;-81
2022/06/14 08:41:06;;;;;;;2.65;2.45;;;25.10;76.50;;;;;;5059776;28;20180;-80
2022/06/14 08:43:48;;;;;;;3.30;3.20;;;25.30;77.40;;;;;;5068048;28;20179;-78
2022/06/14 08:46:33;;;;;;;3.55;3.25;;;25.30;75.10;;;;;;5054878;28;20487;-79
2022/06/14 08:49:10;;;;;;;3.00;2.95;;;25.10;74.60;;;;;;5058105;28;20179;-79
2022/06/14 08:52:14;;;;;;;2.85;2.67;;;25.10;75.40;;;;;;5059220;28;20649;-80
2022/06/14 08:55:37;;;;;;;3.33;3.10;;;25.00;75.60;;;;;;5062130;28;20224;-80
2022/06/14 08:58:21;;;;;;;3.08;3.03;;;25.00;76.40;;;;;;5012797;28;20221;-79
2022/06/14 09:01:11;;;;;;;3.45;3.13;;;25.20;77.20;;;;;;5012328;28;20370;-80
2022/06/14 09:04:00;;;;;;;3.55;3.20;;;25.10;75.30;;;;;;5015031;28;20658;-80
2022/06/14 09:06:43;;;;;;;4.30;2.80;;;25.30;76.40;;;;;;5014381;28;20177;-79
2022/06/14 09:09:27;;;;;;;2.72;2.60;;;25.40;73.90;;;;;;5008687;28;20232;-80
2022/06/14 09:12:02;;;;;;;2.95;2.85;;;25.40;74.60;;;;;;5005299;28;20184;-80
2022/06/14 09:14:55;;;;;;;3.10;3.00;;;25.40;75.00;;;;;;5006397;28;20177;-79
2022/06/14 09:17:47;;;;;;;2.42;2.42;;;25.40;73.40;;;;;;5020942;28;20220;-80
2022/06/14 09:20:39;;;;;;;3.20;3.00;;;25.50;73.30;;;;;;5017530;28;20181;-79
2022/06/14 09:23:35;;;;;;;3.17;2.95;;;25.40;73.50;;;;;;5010746;28;20205;-80
2022/06/14 09:26:43;;;;;;;2.47;2.28;;;25.20;73.60;;;;;;5014449;28;20220;-80
2022/06/14 09:29:33;;;;;;;2.55;2.50;;;25.20;74.60;;;;;;4979567;28;20208;-80
2022/06/14 09:32:17;;;;;;;2.53;2.42;;;25.20;72.70;;;;;;4991940;28;20204;-81
2022/06/14 09:35:24;;;;;;;3.92;2.80;;;25.30;74.40;;;;;;4991919;28;20688;-79
2022/06/14 09:38:04;;;;;;;2.40;2.20;;;25.50;72.70;;;;;;5006962;28;20332;-79
2022/06/14 09:40:48;;;;;;;2.88;2.70;;;25.60;73.70;;;;;;4995632;28;20212;-81
2022/06/14 09:43:25;;;;;;;3.83;2.45;;;25.80;72.10;;;;;;4998400;28;20188;-80
2022/06/14 09:46:09;;;;;;;2.83;2.67;;;25.80;73.40;;;;;;5003938;28;20201;-80
2022/06/14 09:49:02;;;;;;;3.13;3.03;;;26.00;72.80;;;;;;4998565;28;20216;-81
2022/06/14 09:51:49;;;;;;;2.80;2.70;;;26.20;72.80;;;;;;4999544;28;20179;-80
2022/06/14 09:54:29;;;;;;;3.97;2.75;;;26.20;70.90;;;;;;5007705;28;20237;-80
2022/06/14 09:56:57;;;;;;;2.90;2.70;;;26.10;71.90;;;;;;5001831;28;20214;-80
2022/06/14 09:59:35;;;;;;;2.88;2.78;;;26.10;72.30;;;;;;5006927;28;20186;-79
2022/06/14 10:02:48;;;;;;;2.78;2.58;;;26.10;71.70;;;;;;5001911;28;20182;-81
2022/06/14 10:05:21;;;;;;;2.30;2.30;;;26.20;72.10;;;;;;5021230;28;20180;-80
2022/06/14 10:07:54;;;;;;;2.05;2.03;;;26.20;71.70;;;;;;5060864;28;20186;-79
2022/06/14 10:10:38;;;;;;;1.90;1.90;;;26.20;70.80;;;;;;5056157;28;20635;-75
2022/06/14 10:13:28;;;;;;;1.45;1.45;;;26.20;68.70;;;;;;5035068;28;20610;-76
2022/06/14 10:16:21;;;;;;;2.35;1.20;;;26.20;67.90;;;;;;5038473;28;20230;-77
2022/06/14 10:18:50;;;;;;;1.67;1.67;;;26.10;67.10;;;;;;5037882;28;20266;-78
2022/06/14 10:21:42;;;;;;;1.30;1.30;;;26.00;67.50;;;;;;5040239;28;20556;-76
2022/06/14 10:24:22;;;;;;;2.13;1.90;;;25.90;67.50;;;;;;5037257;28;20173;-76
2022/06/14 10:30:04;;;;;;;1.70;1.60;;;25.80;67.60;;;;;;5038649;28;20198;-76
2022/06/14 10:33:01;;;;;;;1.48;1.40;;;25.60;69.00;;;;;;5037910;28;20186;-75
2022/06/14 10:35:50;;;;;;;2.00;1.92;;;25.40;69.10;;;;;;5037971;28;20187;-77
2022/06/14 10:38:37;;;;;;;2.72;1.85;;;25.10;68.90;;;;;;5037049;28;20734;-76
2022/06/14 10:41:08;;;;;;;1.65;1.65;;;25.00;70.40;;;;;;5040354;28;20690;-76
2022/06/14 10:44:00;;;;;;;2.10;2.00;;;24.80;70.60;;;;;;5039550;28;20566;-75
2022/06/14 10:46:39;;;;;;;2.95;1.63;;;24.70;71.60;;;;;;5037125;28;20188;-76
2022/06/14 10:49:42;;;;;;;2.08;1.73;;;24.50;72.50;;;;;;5040344;28;20176;-77
2022/06/14 10:52:30;;;;;;;6.82;1.45;;;24.30;72.80;;;;;;5038068;28;20186;-75
2022/06/14 10:55:53;;;;;;;3.05;1.30;;;24.00;72.90;;;;;;5038322;28;20200;-76
2022/06/14 10:58:24;;;;;;;1.80;0.77;;;23.80;73.90;;;;;;4973516;28;20194;-76
2022/06/14 11:00:55;;;;;;;1.10;1.10;;;23.60;74.20;;;;;;4976565;28;20182;-77
2022/06/14 11:03:50;;;;;;;1.08;1.08;;;23.50;72.90;;;;;;4972676;28;20257;-78
2022/06/14 11:06:52;;;;;;;4.10;0.95;;;23.50;74.10;;;;;;4890972;29;20562;-76
2022/06/14 11:09:19;;;;;;;0.40;0.40;;;23.40;73.80;;;;;;4857039;29;20364;-76
2022/06/14 11:11:54;;;;;;;0.40;0.40;;;23.20;70.70;;;;;;4857647;29;20197;-77
2022/06/14 11:14:44;;;;;;;0.40;0.40;;;23.00;70.20;;;;;;4860416;29;20201;-76
2022/06/14 11:17:42;;;;;;;0.40;0.40;;;22.90;71.70;;;;;;4855368;29;20234;-76
2022/06/14 11:20:38;;;;;;;0.60;0.60;;;22.70;72.90;;;;;;4859548;29;20293;-76
2022/06/14 11:23:24;;;;;;;1.00;1.00;;;22.80;70.80;;;;;;4858073;29;20206;-75
2022/06/14 11:26:02;;;;;;;1.70;1.60;;;22.70;74.20;;;;;;4859331;29;20213;-77
2022/06/14 11:28:36;;;;;;;2.33;1.40;;;22.50;78.00;;;;;;4872305;29;20270;-76
2022/06/14 11:31:14;;;;;;;1.20;0.98;;;22.30;78.90;;;;;;4925752;29;20194;-76
2022/06/14 11:34:02;;;;;;;1.67;1.17;;;22.00;77.90;;;;;;4924487;29;20881;-77
2022/06/14 11:36:48;;;;;;;1.48;1.38;;;21.80;79.80;;;;;;4926027;29;20314;-76
2022/06/14 11:39:44;;;;;;;1.27;1.17;;;21.70;79.60;;;;;;4926367;29;20195;-75
2022/06/14 11:42:21;;;;;;;1.45;1.35;;;21.50;79.80;;;;;;4929545;28;20199;-76
2022/06/14 11:45:03;;;;;;;2.85;1.40;;;21.60;80.00;;;;;;5003123;28;20184;-76
2022/06/14 11:47:44;;;;;;;1.92;1.80;;;21.80;79.90;;;;;;5037613;28;20233;-76
2022/06/14 11:50:13;;;;;;;1.13;1.13;;;21.90;79.50;;;;;;5044472;28;20727;-77
2022/06/14 11:52:52;;;;;;;1.58;1.55;;;22.00;78.00;;;;;;5046088;28;20168;-77
2022/06/14 11:55:29;;;;;;;1.30;1.20;;;22.20;78.50;;;;;;5045929;28;20211;-75
2022/06/14 11:58:08;;;;;;;1.10;1.10;;;22.40;76.00;;;;;;5040731;28;20234;-76
2022/06/14 12:01:32;;;;;;;1.42;1.38;;;22.80;77.70;;;;;;5042682;28;20206;-74
2022/06/14 12:04:04;;;;;;;1.95;1.23;;;23.20;77.00;;;;;;5004209;28;20190;-76
2022/06/14 12:06:44;;;;;;;1.85;1.63;;;23.70;76.10;;;;;;5003015;28;20252;-76
2022/06/14 12:09:24;;;;;;;1.63;1.63;;;24.00;75.30;;;;;;5009469;28;20188;-77
2022/06/14 12:12:09;;;;;;;2.15;2.05;;;24.20;75.80;;;;;;5009886;28;20199;-77
2022/06/14 12:15:16;;;;;;;1.73;1.63;;;24.50;76.80;;;;;;5008411;28;20189;-77
2022/06/14 12:17:51;;;;;;;2.28;2.08;;;24.90;78.50;;;;;;5001783;28;20232;-77
2022/06/14 12:20:23;;;;;;;1.80;1.80;;;25.20;79.00;;;;;;5006104;28;20614;-76
2022/06/14 12:23:10;;;;;;;2.22;2.13;;;25.40;78.70;;;;;;5002674;28;20219;-77
2022/06/14 12:28:34;;;;;;;1.92;1.83;;;25.60;77.90;;;;;;5005067;28;20278;-76
2022/06/14 12:31:14;;;;;;;2.53;1.80;;;25.60;78.70;;;;;;5000326;28;20224;-76
2022/06/14 12:33:45;;;;;;;1.40;1.40;;;25.60;76.20;;;;;;5005587;28;20707;-77
2022/06/14 12:36:46;;;;;;;1.45;1.35;;;25.50;76.50;;;;;;5002957;28;20637;-76
2022/06/14 12:39:20;;;;;;;1.70;1.65;;;25.50;75.90;;;;;;4999053;28;20379;-77
2022/06/14 12:42:11;;;;;;;1.50;1.50;;;25.50;76.20;;;;;;4999576;28;20236;-77
2022/06/14 12:44:53;;;;;;;4.45;1.98;;;25.70;72.80;;;;;;4998894;28;20624;-76
2022/06/14 12:47:48;;;;;;;1.33;1.33;;;25.80;75.00;;;;;;4997409;28;20188;-77
2022/06/14 12:50:20;;;;;;;1.70;1.63;;;26.00;72.90;;;;;;4971380;28;20218;-76
2022/06/14 12:52:54;;;;;;;2.72;1.70;;;26.40;73.80;;;;;;4966227;28;20815;-76
2022/06/14 12:55:39;;;;;;;1.58;1.40;;;27.10;74.40;;;;;;4969535;28;20234;-77
2022/06/14 12:58:23;;;;;;;1.25;1.25;;;27.90;74.00;;;;;;4950753;28;20865;-76
2022/06/14 13:00:58;;;;;;;1.67;1.67;;;29.10;68.00;;;;;;4960752;28;20229;-77
2022/06/14 13:03:52;;;;;;;1.17;1.17;;;29.80;67.10;;;;;;4968788;28;20228;-77
2022/06/14 13:06:50;;;;;;;1.45;1.45;;;30.40;63.50;;;;;;4965959;28;20257;-77
2022/06/14 13:09:33;;;;;;;1.23;1.23;;;31.00;62.90;;;;;;4966166;28;20194;-77
2022/06/14 13:12:33;;;;;;;1.25;1.08;;;31.10;61.90;;;;;;4966702;28;20585;-77
2022/06/14 13:15:17;;;;;;;1.13;1.13;;;31.10;62.10;;;;;;4976754;28;20608;-77
2022/06/14 13:18:03;;;;;;;1.52;1.40;;;30.90;63.30;;;;;;4997363;28;20236;-77
2022/06/14 13:20:45;;;;;;;2.67;1.10;;;30.80;57.90;;;;;;4995430;28;20682;-76
2022/06/14 13:23:46;;;;;;;4.78;1.45;;;30.70;60.80;;;;;;4994705;28;20280;-76
2022/06/14 13:26:19;;;;;;;1.60;1.30;;;30.60;59.50;;;;;;4998664;28;20284;-75
2022/06/14 13:29:09;;;;;;;1.75;0.90;;;30.50;60.00;;;;;;5041206;28;20188;-75
2022/06/14 13:32:00;;;;;;;0.77;0.77;;;30.20;59.80;;;;;;5039541;28;20676;-75
2022/06/14 13:35:00;;;;;;;0.82;0.82;;;30.00;61.20;;;;;;5035856;28;20216;-75
2022/06/14 13:37:38;;;;;;;1.00;1.00;;;29.70;60.90;;;;;;5034259;28;20616;-77
2022/06/14 13:40:40;;;;;;;0.80;0.80;;;29.70;59.20;;;;;;5034135;28;20565;-76
2022/06/14 13:43:13;;;;;;;4.90;1.15;;;30.00;57.10;;;;;;5035133;28;20185;-76
2022/06/14 13:45:47;;;;;;;0.75;0.75;;;30.20;58.80;;;;;;5038767;28;20183;-77
2022/06/14 13:48:19;;;;;;;0.70;0.70;;;30.50;56.40;;;;;;5036242;28;20490;-77
2022/06/14 13:51:14;;;;;;;1.25;1.13;;;30.50;55.60;;;;;;5038679;28;20266;-76
2022/06/14 13:53:50;;;;;;;0.70;0.70;;;30.30;54.50;;;;;;4952081;28;20206;-77
2022/06/14 13:56:47;;;;;;;0.80;0.80;;;30.20;55.70;;;;;;4952242;28;20191;-76
2022/06/14 13:59:16;;;;;;;1.48;0.80;;;30.10;54.50;;;;;;4949546;28;20646;-75
2022/06/14 14:01:45;;;;;;;0.52;0.52;;;30.10;57.10;;;;;;4953725;28;20703;-76
2022/06/14 14:04:23;;;;;;;1.48;0.70;;;30.40;55.30;;;;;;4944867;28;20214;-76
2022/06/14 14:07:16;;;;;;;0.75;0.75;;;30.70;54.50;;;;;;4950325;28;20284;-77
2022/06/14 14:09:51;;;;;;;1.05;0.80;;;30.90;53.30;;;;;;4952422;28;20703;-76